Airfield :
LOGIN :

Register | Disclaimer

   EN    FR    IT 

 










Legend :    VFR   Marginal VFR   IFR   Intensive IFR   Very Intensive IFR
Visi :
Ceiling :
>= 8 km
>= 3000ft
5 to 8 km
1000 to 3000 ft
1500m to 5 km
500 to 1000 ft
800 to 1500m
200 to 500 ft
< 800m
< 200 ft
Symbols :   Thunderstorms  Fog  Heavy snow  Heavy precipitations  Wind > 20 kt
SIGMETs :     Misc.  Thunderstorms  Icing  Turbulence  Mountain Waves  Volcanic Ashes







- Airport Elevation : 39 ft
- IATA code : ANR


EBAW - Anvers / Antwerpen Deurne

CURRENT METAR :
  • 210720Z 00000KT 7000 MIFG NSC M07/M08 Q1024 NOSIG

EXPIRED METARs :
  • 210650Z VRB01KT CAVOK M06/M07 Q1023 NOSIG
  • 210620Z 33001KT CAVOK M06/M07 Q1023 NOSIG
  • 210550Z 16002KT CAVOK M08/M09 Q1023
  • 210520Z AUTO VRB01KT 8000 // NCD M06/M07 Q1023
  • 210450Z AUTO 00000KT 9000 // NCD M07/M08 Q1023
  • 210420Z AUTO 30001KT 8000 // NCD M06/M07 Q1023

TAF TAF EBAW
Valid from the 21 at 06:00 until the 21 at 15:00 UTC


210500Z 2106/2115 22003KT CAVOK
PROB40
TEMPO 2106/2109 4000 BR MIFG
PROB30
TEMPO 2106/2108 1400 BCFG
No reported NOTAMs for that airfield.



MET'MAP, your aeronautical weather chart ! - Copyright ORBIFLY December 2007 - Disclaimer

ORBIFLY MET'MAP TEAM :

Programming & Development : Alexandra Zaïnal
Concept & Development : Baudouin d'Aumeries
Co-Development & Prog : Marc-Olivier Méhu
Technical & hardware support : Manuel Goepfert

Contact : metmap@orbifly.com




SOURCES & CREDITS :

   NOAA